sensor_id;sensor_type;location;lat;lon;timestamp;P1;durP1;ratioP1;P2;durP2;ratioP2
46487;SDS011;32202;48.780;9.204;2022-10-30T00:00:13;20.13;;;8.25;;
46487;SDS011;32202;48.780;9.204;2022-10-30T00:02:39;17.95;;;8.02;;
46487;SDS011;32202;48.780;9.204;2022-10-30T00:05:05;16.52;;;7.03;;
46487;SDS011;32202;48.780;9.204;2022-10-30T00:07:31;17.17;;;7.38;;
46487;SDS011;32202;48.780;9.204;2022-10-30T00:09:57;17.05;;;7.55;;
46487;SDS011;32202;48.780;9.204;2022-10-30T00:12:23;21.02;;;7.07;;
46487;SDS011;32202;48.780;9.204;2022-10-30T00:14:48;18.30;;;7.07;;
46487;SDS011;32202;48.780;9.204;2022-10-30T00:17:14;18.73;;;8.13;;
46487;SDS011;32202;48.780;9.204;2022-10-30T00:19:40;20.30;;;7.53;;
46487;SDS011;32202;48.780;9.204;2022-10-30T00:22:05;16.88;;;7.82;;
46487;SDS011;32202;48.780;9.204;2022-10-30T00:24:31;18.13;;;8.10;;
46487;SDS011;32202;48.780;9.204;2022-10-30T00:26:56;16.75;;;7.65;;
46487;SDS011;32202;48.780;9.204;2022-10-30T00:29:22;18.63;;;7.38;;
46487;SDS011;32202;48.780;9.204;2022-10-30T00:31:49;19.23;;;7.70;;
46487;SDS011;32202;48.780;9.204;2022-10-30T00:34:14;17.52;;;7.43;;
46487;SDS011;32202;48.780;9.204;2022-10-30T00:36:40;17.48;;;7.57;;
46487;SDS011;32202;48.780;9.204;2022-10-30T00:39:06;15.63;;;7.38;;
46487;SDS011;32202;48.780;9.204;2022-10-30T00:41:31;14.88;;;6.78;;
46487;SDS011;32202;48.780;9.204;2022-10-30T00:43:57;18.20;;;6.53;;
46487;SDS011;32202;48.780;9.204;2022-10-30T00:46:30;16.02;;;7.32;;
46487;SDS011;32202;48.780;9.204;2022-10-30T00:51:33;13.38;;;6.30;;
46487;SDS011;32202;48.780;9.204;2022-10-30T00:54:01;17.85;;;6.47;;
46487;SDS011;32202;48.780;9.204;2022-10-30T00:56:30;16.67;;;6.80;;
46487;SDS011;32202;48.780;9.204;2022-10-30T00:58:57;15.75;;;6.95;;
46487;SDS011;32202;48.780;9.204;2022-10-30T01:01:26;18.07;;;7.33;;
46487;SDS011;32202;48.780;9.204;2022-10-30T01:03:56;18.08;;;7.10;;
46487;SDS011;32202;48.780;9.204;2022-10-30T01:06:23;13.90;;;6.95;;
46487;SDS011;32202;48.780;9.204;2022-10-30T01:08:50;16.77;;;6.43;;
46487;SDS011;32202;48.780;9.204;2022-10-30T01:11:18;13.10;;;7.53;;
46487;SDS011;32202;48.780;9.204;2022-10-30T01:13:43;14.52;;;7.55;;
46487;SDS011;32202;48.780;9.204;2022-10-30T01:18:51;18.52;;;7.75;;
46487;SDS011;32202;48.780;9.204;2022-10-30T01:32:37;19.70;;;8.93;;
46487;SDS011;32202;48.780;9.204;2022-10-30T01:35:22;19.20;;;9.00;;
46487;SDS011;32202;48.780;9.204;2022-10-30T01:38:09;23.73;;;9.45;;
46487;SDS011;32202;48.780;9.204;2022-10-30T01:40:55;21.15;;;9.55;;
46487;SDS011;32202;48.780;9.204;2022-10-30T01:43:21;17.08;;;8.85;;
46487;SDS011;32202;48.780;9.204;2022-10-30T01:48:23;16.50;;;8.23;;
46487;SDS011;32202;48.780;9.204;2022-10-30T01:51:28;20.92;;;8.40;;
46487;SDS011;32202;48.780;9.204;2022-10-30T01:54:24;17.92;;;8.32;;
46487;SDS011;32202;48.780;9.204;2022-10-30T01:57:14;20.13;;;8.27;;
46487;SDS011;32202;48.780;9.204;2022-10-30T01:59:49;16.83;;;8.20;;
46487;SDS011;32202;48.780;9.204;2022-10-30T02:02:19;15.63;;;7.90;;
46487;SDS011;32202;48.780;9.204;2022-10-30T02:04:45;16.13;;;8.60;;
46487;SDS011;32202;48.780;9.204;2022-10-30T02:07:10;14.25;;;8.05;;
46487;SDS011;32202;48.780;9.204;2022-10-30T02:09:37;16.58;;;7.88;;
46487;SDS011;32202;48.780;9.204;2022-10-30T02:12:03;18.05;;;8.05;;
46487;SDS011;32202;48.780;9.204;2022-10-30T02:14:30;13.98;;;7.57;;
46487;SDS011;32202;48.780;9.204;2022-10-30T02:17:02;19.42;;;8.07;;
46487;SDS011;32202;48.780;9.204;2022-10-30T02:19:30;14.52;;;7.93;;
46487;SDS011;32202;48.780;9.204;2022-10-30T02:21:55;15.07;;;8.00;;
46487;SDS011;32202;48.780;9.204;2022-10-30T02:24:21;15.05;;;8.18;;
46487;SDS011;32202;48.780;9.204;2022-10-30T02:26:46;19.17;;;8.13;;
46487;SDS011;32202;48.780;9.204;2022-10-30T02:29:12;12.70;;;7.80;;
46487;SDS011;32202;48.780;9.204;2022-10-30T02:31:38;15.25;;;7.90;;
46487;SDS011;32202;48.780;9.204;2022-10-30T02:34:03;16.50;;;8.05;;
46487;SDS011;32202;48.780;9.204;2022-10-30T02:36:29;18.63;;;7.82;;
46487;SDS011;32202;48.780;9.204;2022-10-30T02:38:55;15.73;;;7.60;;
46487;SDS011;32202;48.780;9.204;2022-10-30T02:41:21;19.17;;;8.02;;
46487;SDS011;32202;48.780;9.204;2022-10-30T02:43:49;15.48;;;9.00;;
46487;SDS011;32202;48.780;9.204;2022-10-30T02:46:15;21.27;;;11.23;;
46487;SDS011;32202;48.780;9.204;2022-10-30T02:48:41;23.83;;;11.88;;
46487;SDS011;32202;48.780;9.204;2022-10-30T02:51:06;23.42;;;13.18;;
46487;SDS011;32202;48.780;9.204;2022-10-30T02:53:32;15.23;;;7.95;;
46487;SDS011;32202;48.780;9.204;2022-10-30T02:56:05;17.73;;;8.32;;
46487;SDS011;32202;48.780;9.204;2022-10-30T02:58:32;19.35;;;8.80;;
46487;SDS011;32202;48.780;9.204;2022-10-30T03:01:03;19.55;;;8.48;;
46487;SDS011;32202;48.780;9.204;2022-10-30T03:03:33;13.15;;;7.25;;
46487;SDS011;32202;48.780;9.204;2022-10-30T03:06:00;23.58;;;10.75;;
46487;SDS011;32202;48.780;9.204;2022-10-30T03:08:29;19.95;;;8.85;;
46487;SDS011;32202;48.780;9.204;2022-10-30T03:10:59;20.63;;;10.88;;
46487;SDS011;32202;48.780;9.204;2022-10-30T03:13:27;23.88;;;10.52;;
46487;SDS011;32202;48.780;9.204;2022-10-30T03:16:01;23.83;;;12.00;;
46487;SDS011;32202;48.780;9.204;2022-10-30T03:18:29;24.60;;;12.82;;
46487;SDS011;32202;48.780;9.204;2022-10-30T03:20:55;26.33;;;13.45;;
46487;SDS011;32202;48.780;9.204;2022-10-30T03:23:25;28.30;;;14.68;;
46487;SDS011;32202;48.780;9.204;2022-10-30T03:25:52;23.50;;;9.93;;
46487;SDS011;32202;48.780;9.204;2022-10-30T03:28:20;28.30;;;15.48;;
46487;SDS011;32202;48.780;9.204;2022-10-30T03:30:46;34.92;;;18.02;;
46487;SDS011;32202;48.780;9.204;2022-10-30T03:33:12;65.65;;;36.70;;
46487;SDS011;32202;48.780;9.204;2022-10-30T03:35:37;44.10;;;22.60;;
46487;SDS011;32202;48.780;9.204;2022-10-30T03:38:03;42.58;;;21.75;;
46487;SDS011;32202;48.780;9.204;2022-10-30T03:40:29;42.90;;;22.02;;
46487;SDS011;32202;48.780;9.204;2022-10-30T03:42:54;23.13;;;12.77;;
46487;SDS011;32202;48.780;9.204;2022-10-30T03:45:20;30.98;;;12.50;;
46487;SDS011;32202;48.780;9.204;2022-10-30T03:47:45;31.10;;;15.95;;
46487;SDS011;32202;48.780;9.204;2022-10-30T03:50:11;363.58;;;213.85;;
46487;SDS011;32202;48.780;9.204;2022-10-30T03:52:36;654.05;;;450.45;;
46487;SDS011;32202;48.780;9.204;2022-10-30T03:55:02;531.20;;;350.52;;
46487;SDS011;32202;48.780;9.204;2022-10-30T03:57:28;224.93;;;122.78;;
46487;SDS011;32202;48.780;9.204;2022-10-30T03:59:53;397.23;;;236.73;;
46487;SDS011;32202;48.780;9.204;2022-10-30T04:02:19;287.52;;;162.60;;
46487;SDS011;32202;48.780;9.204;2022-10-30T04:04:45;326.90;;;194.70;;
46487;SDS011;32202;48.780;9.204;2022-10-30T04:07:10;185.20;;;108.93;;
46487;SDS011;32202;48.780;9.204;2022-10-30T04:09:36;218.30;;;120.78;;
46487;SDS011;32202;48.780;9.204;2022-10-30T04:12:01;169.43;;;92.50;;
46487;SDS011;32202;48.780;9.204;2022-10-30T04:14:27;138.25;;;76.32;;
46487;SDS011;32202;48.780;9.204;2022-10-30T04:16:52;37.38;;;21.52;;
46487;SDS011;32202;48.780;9.204;2022-10-30T04:19:18;93.80;;;51.08;;
46487;SDS011;32202;48.780;9.204;2022-10-30T04:21:43;112.38;;;62.92;;
46487;SDS011;32202;48.780;9.204;2022-10-30T04:24:11;44.25;;;19.48;;
46487;SDS011;32202;48.780;9.204;2022-10-30T04:26:40;27.60;;;12.75;;
46487;SDS011;32202;48.780;9.204;2022-10-30T04:29:05;23.98;;;9.32;;
46487;SDS011;32202;48.780;9.204;2022-10-30T04:31:31;22.75;;;10.80;;
46487;SDS011;32202;48.780;9.204;2022-10-30T04:33:56;15.40;;;7.20;;
46487;SDS011;32202;48.780;9.204;2022-10-30T04:36:22;17.83;;;8.88;;
46487;SDS011;32202;48.780;9.204;2022-10-30T04:38:54;16.75;;;7.90;;
46487;SDS011;32202;48.780;9.204;2022-10-30T04:41:19;15.15;;;6.95;;
46487;SDS011;32202;48.780;9.204;2022-10-30T04:43:47;20.50;;;8.10;;
46487;SDS011;32202;48.780;9.204;2022-10-30T04:46:13;15.98;;;6.97;;
46487;SDS011;32202;48.780;9.204;2022-10-30T04:48:38;17.98;;;7.97;;
46487;SDS011;32202;48.780;9.204;2022-10-30T04:51:05;21.33;;;8.60;;
46487;SDS011;32202;48.780;9.204;2022-10-30T04:53:31;18.05;;;8.20;;
46487;SDS011;32202;48.780;9.204;2022-10-30T04:55:56;13.15;;;6.68;;
46487;SDS011;32202;48.780;9.204;2022-10-30T04:58:22;14.40;;;6.65;;
46487;SDS011;32202;48.780;9.204;2022-10-30T05:00:48;21.83;;;7.05;;
46487;SDS011;32202;48.780;9.204;2022-10-30T05:03:17;13.98;;;6.38;;
46487;SDS011;32202;48.780;9.204;2022-10-30T05:05:47;14.93;;;7.45;;
46487;SDS011;32202;48.780;9.204;2022-10-30T05:08:30;15.32;;;6.97;;
46487;SDS011;32202;48.780;9.204;2022-10-30T05:10:56;15.40;;;6.65;;
46487;SDS011;32202;48.780;9.204;2022-10-30T05:13:22;12.60;;;6.68;;
46487;SDS011;32202;48.780;9.204;2022-10-30T05:15:48;21.33;;;8.85;;
46487;SDS011;32202;48.780;9.204;2022-10-30T05:18:13;20.92;;;6.13;;
46487;SDS011;32202;48.780;9.204;2022-10-30T05:20:39;13.57;;;6.25;;
46487;SDS011;32202;48.780;9.204;2022-10-30T05:23:05;18.13;;;8.77;;
46487;SDS011;32202;48.780;9.204;2022-10-30T05:25:30;15.90;;;7.60;;
46487;SDS011;32202;48.780;9.204;2022-10-30T05:27:57;20.00;;;7.90;;
46487;SDS011;32202;48.780;9.204;2022-10-30T05:30:29;33.80;;;18.70;;
46487;SDS011;32202;48.780;9.204;2022-10-30T05:32:57;25.63;;;12.48;;
46487;SDS011;32202;48.780;9.204;2022-10-30T05:35:24;24.85;;;11.65;;
46487;SDS011;32202;48.780;9.204;2022-10-30T05:37:49;54.83;;;28.30;;
46487;SDS011;32202;48.780;9.204;2022-10-30T05:40:15;50.45;;;25.83;;
46487;SDS011;32202;48.780;9.204;2022-10-30T05:42:44;20.75;;;10.07;;
46487;SDS011;32202;48.780;9.204;2022-10-30T05:45:10;15.50;;;6.97;;
46487;SDS011;32202;48.780;9.204;2022-10-30T05:47:36;12.70;;;6.82;;
46487;SDS011;32202;48.780;9.204;2022-10-30T05:50:02;149.35;;;80.53;;
46487;SDS011;32202;48.780;9.204;2022-10-30T05:52:28;73.47;;;40.30;;
46487;SDS011;32202;48.780;9.204;2022-10-30T05:54:54;58.72;;;30.80;;
46487;SDS011;32202;48.780;9.204;2022-10-30T05:57:20;43.38;;;21.08;;
46487;SDS011;32202;48.780;9.204;2022-10-30T05:59:45;19.33;;;9.75;;
46487;SDS011;32202;48.780;9.204;2022-10-30T06:02:11;12.73;;;7.60;;
46487;SDS011;32202;48.780;9.204;2022-10-30T06:04:36;39.22;;;23.02;;
46487;SDS011;32202;48.780;9.204;2022-10-30T06:07:02;38.70;;;23.95;;
46487;SDS011;32202;48.780;9.204;2022-10-30T06:09:28;38.75;;;22.10;;
46487;SDS011;32202;48.780;9.204;2022-10-30T06:11:53;23.60;;;12.27;;
46487;SDS011;32202;48.780;9.204;2022-10-30T06:14:19;23.05;;;14.02;;
46487;SDS011;32202;48.780;9.204;2022-10-30T06:16:45;22.65;;;8.52;;
46487;SDS011;32202;48.780;9.204;2022-10-30T06:19:11;22.60;;;11.00;;
46487;SDS011;32202;48.780;9.204;2022-10-30T06:21:37;15.98;;;7.65;;
46487;SDS011;32202;48.780;9.204;2022-10-30T06:24:02;16.90;;;7.70;;
46487;SDS011;32202;48.780;9.204;2022-10-30T06:26:28;13.38;;;6.80;;
46487;SDS011;32202;48.780;9.204;2022-10-30T06:28:54;20.38;;;6.78;;
46487;SDS011;32202;48.780;9.204;2022-10-30T06:31:19;12.95;;;6.35;;
46487;SDS011;32202;48.780;9.204;2022-10-30T06:33:45;13.93;;;6.82;;
46487;SDS011;32202;48.780;9.204;2022-10-30T06:36:10;23.00;;;6.07;;
46487;SDS011;32202;48.780;9.204;2022-10-30T06:38:36;15.30;;;6.90;;
46487;SDS011;32202;48.780;9.204;2022-10-30T06:41:02;16.70;;;6.40;;
46487;SDS011;32202;48.780;9.204;2022-10-30T06:43:27;15.90;;;6.32;;
46487;SDS011;32202;48.780;9.204;2022-10-30T06:45:53;13.07;;;6.63;;
46487;SDS011;32202;48.780;9.204;2022-10-30T06:48:18;16.23;;;6.40;;
46487;SDS011;32202;48.780;9.204;2022-10-30T06:50:51;18.48;;;6.65;;
46487;SDS011;32202;48.780;9.204;2022-10-30T06:53:18;17.30;;;7.50;;
46487;SDS011;32202;48.780;9.204;2022-10-30T06:56:02;16.45;;;6.85;;
46487;SDS011;32202;48.780;9.204;2022-10-30T06:58:28;20.08;;;6.88;;
46487;SDS011;32202;48.780;9.204;2022-10-30T07:00:54;16.42;;;6.68;;
46487;SDS011;32202;48.780;9.204;2022-10-30T07:03:23;12.32;;;6.32;;
46487;SDS011;32202;48.780;9.204;2022-10-30T07:05:48;19.17;;;6.13;;
46487;SDS011;32202;48.780;9.204;2022-10-30T07:08:16;14.02;;;6.35;;
46487;SDS011;32202;48.780;9.204;2022-10-30T07:10:41;21.58;;;7.13;;
46487;SDS011;32202;48.780;9.204;2022-10-30T07:13:07;15.38;;;6.20;;
46487;SDS011;32202;48.780;9.204;2022-10-30T07:15:32;17.55;;;6.63;;
46487;SDS011;32202;48.780;9.204;2022-10-30T07:17:59;15.73;;;6.85;;
46487;SDS011;32202;48.780;9.204;2022-10-30T07:20:27;13.40;;;7.38;;
46487;SDS011;32202;48.780;9.204;2022-10-30T07:22:54;15.90;;;6.57;;
46487;SDS011;32202;48.780;9.204;2022-10-30T07:25:20;16.02;;;6.35;;
46487;SDS011;32202;48.780;9.204;2022-10-30T07:27:47;16.35;;;7.78;;
46487;SDS011;32202;48.780;9.204;2022-10-30T07:30:14;14.05;;;6.90;;
46487;SDS011;32202;48.780;9.204;2022-10-30T07:32:41;20.10;;;7.32;;
46487;SDS011;32202;48.780;9.204;2022-10-30T07:35:07;16.05;;;6.97;;
46487;SDS011;32202;48.780;9.204;2022-10-30T07:37:34;17.10;;;7.97;;
46487;SDS011;32202;48.780;9.204;2022-10-30T07:40:00;16.48;;;7.82;;
46487;SDS011;32202;48.780;9.204;2022-10-30T07:42:26;15.75;;;7.18;;
46487;SDS011;32202;48.780;9.204;2022-10-30T07:44:51;17.40;;;6.93;;
46487;SDS011;32202;48.780;9.204;2022-10-30T07:47:17;15.65;;;8.23;;
46487;SDS011;32202;48.780;9.204;2022-10-30T07:49:42;14.40;;;6.65;;
46487;SDS011;32202;48.780;9.204;2022-10-30T07:52:08;17.80;;;7.43;;
46487;SDS011;32202;48.780;9.204;2022-10-30T07:54:33;16.30;;;7.05;;
46487;SDS011;32202;48.780;9.204;2022-10-30T07:56:59;16.88;;;6.97;;
46487;SDS011;32202;48.780;9.204;2022-10-30T07:59:25;13.80;;;6.32;;
46487;SDS011;32202;48.780;9.204;2022-10-30T08:01:50;11.90;;;5.85;;
46487;SDS011;32202;48.780;9.204;2022-10-30T08:04:16;13.38;;;5.90;;
46487;SDS011;32202;48.780;9.204;2022-10-30T08:06:41;28.42;;;12.20;;
46487;SDS011;32202;48.780;9.204;2022-10-30T08:09:07;13.98;;;7.22;;
46487;SDS011;32202;48.780;9.204;2022-10-30T08:11:33;17.08;;;6.40;;
46487;SDS011;32202;48.780;9.204;2022-10-30T08:13:59;15.57;;;6.53;;
46487;SDS011;32202;48.780;9.204;2022-10-30T08:16:25;24.92;;;11.13;;
46487;SDS011;32202;48.780;9.204;2022-10-30T08:18:51;20.92;;;9.75;;
46487;SDS011;32202;48.780;9.204;2022-10-30T08:21:16;32.03;;;13.98;;
46487;SDS011;32202;48.780;9.204;2022-10-30T08:23:42;18.05;;;6.63;;
46487;SDS011;32202;48.780;9.204;2022-10-30T08:26:08;14.48;;;6.40;;
46487;SDS011;32202;48.780;9.204;2022-10-30T08:28:33;21.20;;;7.88;;
46487;SDS011;32202;48.780;9.204;2022-10-30T08:30:59;15.57;;;7.25;;
46487;SDS011;32202;48.780;9.204;2022-10-30T08:33:26;13.98;;;5.75;;
46487;SDS011;32202;48.780;9.204;2022-10-30T08:35:53;17.80;;;7.68;;
46487;SDS011;32202;48.780;9.204;2022-10-30T08:38:23;18.33;;;7.20;;
46487;SDS011;32202;48.780;9.204;2022-10-30T08:40:50;12.32;;;5.63;;
46487;SDS011;32202;48.780;9.204;2022-10-30T08:43:16;9.13;;;4.88;;
46487;SDS011;32202;48.780;9.204;2022-10-30T08:45:42;14.95;;;6.05;;
46487;SDS011;32202;48.780;9.204;2022-10-30T08:48:12;9.52;;;4.53;;
46487;SDS011;32202;48.780;9.204;2022-10-30T08:50:39;9.13;;;4.47;;
46487;SDS011;32202;48.780;9.204;2022-10-30T08:53:06;11.10;;;5.03;;
46487;SDS011;32202;48.780;9.204;2022-10-30T08:55:34;13.25;;;5.88;;
46487;SDS011;32202;48.780;9.204;2022-10-30T08:58:00;11.02;;;5.55;;
46487;SDS011;32202;48.780;9.204;2022-10-30T09:00:26;10.98;;;4.18;;
46487;SDS011;32202;48.780;9.204;2022-10-30T09:02:52;13.30;;;5.28;;
46487;SDS011;32202;48.780;9.204;2022-10-30T09:05:18;18.65;;;6.78;;
46487;SDS011;32202;48.780;9.204;2022-10-30T09:07:44;12.18;;;5.38;;
46487;SDS011;32202;48.780;9.204;2022-10-30T09:10:10;10.60;;;5.20;;
46487;SDS011;32202;48.780;9.204;2022-10-30T09:12:36;10.40;;;4.47;;
46487;SDS011;32202;48.780;9.204;2022-10-30T09:15:01;12.77;;;5.38;;
46487;SDS011;32202;48.780;9.204;2022-10-30T09:17:27;10.95;;;4.28;;
46487;SDS011;32202;48.780;9.204;2022-10-30T09:19:53;12.73;;;5.05;;
46487;SDS011;32202;48.780;9.204;2022-10-30T09:22:19;9.63;;;4.13;;
46487;SDS011;32202;48.780;9.204;2022-10-30T09:24:44;9.98;;;4.40;;
46487;SDS011;32202;48.780;9.204;2022-10-30T09:27:10;7.95;;;4.00;;
46487;SDS011;32202;48.780;9.204;2022-10-30T09:29:35;8.65;;;3.88;;
46487;SDS011;32202;48.780;9.204;2022-10-30T09:32:01;10.93;;;3.92;;
46487;SDS011;32202;48.780;9.204;2022-10-30T09:34:29;10.52;;;4.93;;
46487;SDS011;32202;48.780;9.204;2022-10-30T09:36:55;14.05;;;4.93;;
46487;SDS011;32202;48.780;9.204;2022-10-30T09:39:20;11.43;;;4.20;;
46487;SDS011;32202;48.780;9.204;2022-10-30T09:52:47;8.60;;;4.40;;
46487;SDS011;32202;48.780;9.204;2022-10-30T10:03:56;9.27;;;4.40;;
46487;SDS011;32202;48.780;9.204;2022-10-30T10:06:22;11.65;;;4.95;;
46487;SDS011;32202;48.780;9.204;2022-10-30T10:08:54;10.55;;;4.00;;
46487;SDS011;32202;48.780;9.204;2022-10-30T10:11:27;9.98;;;4.50;;
46487;SDS011;32202;48.780;9.204;2022-10-30T10:16:25;8.88;;;4.30;;
46487;SDS011;32202;48.780;9.204;2022-10-30T10:21:35;22.85;;;14.13;;
46487;SDS011;32202;48.780;9.204;2022-10-30T10:24:13;27.85;;;18.77;;
46487;SDS011;32202;48.780;9.204;2022-10-30T10:30:11;21.45;;;13.30;;
46487;SDS011;32202;48.780;9.204;2022-10-30T10:38:08;9.10;;;4.57;;
46487;SDS011;32202;48.780;9.204;2022-10-30T10:49:50;11.43;;;4.80;;
46487;SDS011;32202;48.780;9.204;2022-10-30T10:52:48;8.98;;;4.32;;
46487;SDS011;32202;48.780;9.204;2022-10-30T10:55:21;12.07;;;5.13;;
46487;SDS011;32202;48.780;9.204;2022-10-30T10:57:50;10.48;;;4.78;;
46487;SDS011;32202;48.780;9.204;2022-10-30T11:00:17;11.32;;;4.53;;
46487;SDS011;32202;48.780;9.204;2022-10-30T11:05:40;9.45;;;4.60;;
46487;SDS011;32202;48.780;9.204;2022-10-30T11:08:34;8.88;;;4.57;;
46487;SDS011;32202;48.780;9.204;2022-10-30T11:11:02;9.38;;;4.40;;
46487;SDS011;32202;48.780;9.204;2022-10-30T11:13:37;10.03;;;4.47;;
46487;SDS011;32202;48.780;9.204;2022-10-30T11:18:59;11.65;;;4.88;;
46487;SDS011;32202;48.780;9.204;2022-10-30T11:21:28;10.73;;;4.25;;
46487;SDS011;32202;48.780;9.204;2022-10-30T11:23:57;13.25;;;4.82;;
46487;SDS011;32202;48.780;9.204;2022-10-30T11:26:24;10.15;;;4.60;;
46487;SDS011;32202;48.780;9.204;2022-10-30T11:28:56;8.02;;;4.60;;
46487;SDS011;32202;48.780;9.204;2022-10-30T11:31:37;12.98;;;5.63;;
46487;SDS011;32202;48.780;9.204;2022-10-30T11:34:12;9.60;;;4.85;;
46487;SDS011;32202;48.780;9.204;2022-10-30T11:36:40;11.65;;;5.10;;
46487;SDS011;32202;48.780;9.204;2022-10-30T11:39:10;11.98;;;6.03;;
46487;SDS011;32202;48.780;9.204;2022-10-30T11:41:41;10.27;;;5.78;;
46487;SDS011;32202;48.780;9.204;2022-10-30T11:44:12;10.98;;;5.68;;
46487;SDS011;32202;48.780;9.204;2022-10-30T11:46:37;13.32;;;6.47;;
46487;SDS011;32202;48.780;9.204;2022-10-30T11:49:03;10.27;;;5.50;;
46487;SDS011;32202;48.780;9.204;2022-10-30T11:51:33;11.50;;;5.40;;
46487;SDS011;32202;48.780;9.204;2022-10-30T11:54:01;12.70;;;6.32;;
46487;SDS011;32202;48.780;9.204;2022-10-30T11:56:27;10.68;;;5.78;;
46487;SDS011;32202;48.780;9.204;2022-10-30T11:58:56;10.98;;;5.97;;
46487;SDS011;32202;48.780;9.204;2022-10-30T12:04:21;13.40;;;6.82;;
46487;SDS011;32202;48.780;9.204;2022-10-30T12:07:16;13.38;;;7.88;;
46487;SDS011;32202;48.780;9.204;2022-10-30T12:09:52;16.50;;;7.45;;
46487;SDS011;32202;48.780;9.204;2022-10-30T12:12:29;11.02;;;6.25;;
46487;SDS011;32202;48.780;9.204;2022-10-30T12:15:07;14.10;;;6.65;;
46487;SDS011;32202;48.780;9.204;2022-10-30T12:17:39;19.27;;;8.47;;
46487;SDS011;32202;48.780;9.204;2022-10-30T12:20:05;16.20;;;8.63;;
46487;SDS011;32202;48.780;9.204;2022-10-30T12:22:37;14.18;;;7.05;;
46487;SDS011;32202;48.780;9.204;2022-10-30T12:25:05;17.02;;;7.00;;
46487;SDS011;32202;48.780;9.204;2022-10-30T12:27:44;16.48;;;6.65;;
46487;SDS011;32202;48.780;9.204;2022-10-30T12:30:17;12.93;;;6.82;;
46487;SDS011;32202;48.780;9.204;2022-10-30T12:35:58;13.07;;;6.57;;
46487;SDS011;32202;48.780;9.204;2022-10-30T12:38:33;14.05;;;7.70;;
46487;SDS011;32202;48.780;9.204;2022-10-30T12:46:54;15.35;;;7.30;;
46487;SDS011;32202;48.780;9.204;2022-10-30T12:49:29;13.10;;;7.05;;
46487;SDS011;32202;48.780;9.204;2022-10-30T12:58:35;14.95;;;8.40;;
46487;SDS011;32202;48.780;9.204;2022-10-30T13:00:55;19.38;;;11.90;;
46487;SDS011;32202;48.780;9.204;2022-10-30T13:03:33;16.33;;;7.90;;
46487;SDS011;32202;48.780;9.204;2022-10-30T13:06:09;15.23;;;7.20;;
46487;SDS011;32202;48.780;9.204;2022-10-30T13:09:25;20.55;;;11.52;;
46487;SDS011;32202;48.780;9.204;2022-10-30T13:11:35;44.73;;;26.43;;
46487;SDS011;32202;48.780;9.204;2022-10-30T13:14:11;36.60;;;26.05;;
46487;SDS011;32202;48.780;9.204;2022-10-30T13:16:50;44.15;;;33.47;;
46487;SDS011;32202;48.780;9.204;2022-10-30T13:19:16;41.00;;;29.27;;
46487;SDS011;32202;48.780;9.204;2022-10-30T13:24:11;16.25;;;10.52;;
46487;SDS011;32202;48.780;9.204;2022-10-30T13:26:57;18.70;;;10.38;;
46487;SDS011;32202;48.780;9.204;2022-10-30T13:29:36;24.65;;;16.13;;
46487;SDS011;32202;48.780;9.204;2022-10-30T13:32:25;33.15;;;22.55;;
46487;SDS011;32202;48.780;9.204;2022-10-30T13:38:35;24.42;;;15.27;;
46487;SDS011;32202;48.780;9.204;2022-10-30T13:41:02;20.80;;;8.38;;
46487;SDS011;32202;48.780;9.204;2022-10-30T13:50:19;12.73;;;7.25;;
46487;SDS011;32202;48.780;9.204;2022-10-30T13:52:56;16.10;;;7.82;;
46487;SDS011;32202;48.780;9.204;2022-10-30T13:55:25;16.95;;;8.75;;
46487;SDS011;32202;48.780;9.204;2022-10-30T14:05:45;12.43;;;6.97;;
46487;SDS011;32202;48.780;9.204;2022-10-30T14:08:54;10.77;;;6.65;;
46487;SDS011;32202;48.780;9.204;2022-10-30T14:14:35;12.55;;;6.45;;
46487;SDS011;32202;48.780;9.204;2022-10-30T14:22:32;14.35;;;7.00;;
46487;SDS011;32202;48.780;9.204;2022-10-30T14:24:59;14.80;;;7.03;;
46487;SDS011;32202;48.780;9.204;2022-10-30T14:27:29;13.60;;;7.15;;
46487;SDS011;32202;48.780;9.204;2022-10-30T14:29:56;16.17;;;7.35;;
46487;SDS011;32202;48.780;9.204;2022-10-30T14:37:14;12.60;;;7.80;;
46487;SDS011;32202;48.780;9.204;2022-10-30T14:39:47;18.45;;;8.60;;
46487;SDS011;32202;48.780;9.204;2022-10-30T14:45:21;14.13;;;8.15;;
46487;SDS011;32202;48.780;9.204;2022-10-30T15:07:44;15.00;;;8.30;;
46487;SDS011;32202;48.780;9.204;2022-10-30T15:15:44;13.32;;;7.13;;
46487;SDS011;32202;48.780;9.204;2022-10-30T15:18:14;15.27;;;7.32;;
46487;SDS011;32202;48.780;9.204;2022-10-30T15:20:43;14.88;;;6.07;;
46487;SDS011;32202;48.780;9.204;2022-10-30T15:23:17;14.65;;;7.10;;
46487;SDS011;32202;48.780;9.204;2022-10-30T15:25:51;16.60;;;7.22;;
46487;SDS011;32202;48.780;9.204;2022-10-30T15:28:19;15.70;;;6.72;;
46487;SDS011;32202;48.780;9.204;2022-10-30T15:31:00;14.50;;;7.22;;
46487;SDS011;32202;48.780;9.204;2022-10-30T15:33:30;14.02;;;7.57;;
46487;SDS011;32202;48.780;9.204;2022-10-30T15:38:26;17.45;;;7.35;;
46487;SDS011;32202;48.780;9.204;2022-10-30T15:40:59;14.75;;;7.18;;
46487;SDS011;32202;48.780;9.204;2022-10-30T15:43:28;14.57;;;6.82;;
46487;SDS011;32202;48.780;9.204;2022-10-30T15:45:58;14.20;;;6.63;;
46487;SDS011;32202;48.780;9.204;2022-10-30T15:48:26;16.10;;;6.18;;
46487;SDS011;32202;48.780;9.204;2022-10-30T15:51:01;15.18;;;7.07;;
46487;SDS011;32202;48.780;9.204;2022-10-30T15:53:53;15.20;;;7.57;;
46487;SDS011;32202;48.780;9.204;2022-10-30T15:56:24;16.75;;;8.13;;
46487;SDS011;32202;48.780;9.204;2022-10-30T15:58:58;17.58;;;7.90;;
46487;SDS011;32202;48.780;9.204;2022-10-30T16:01:29;17.08;;;8.30;;
46487;SDS011;32202;48.780;9.204;2022-10-30T16:03:57;14.93;;;7.63;;
46487;SDS011;32202;48.780;9.204;2022-10-30T16:06:24;16.40;;;9.02;;
46487;SDS011;32202;48.780;9.204;2022-10-30T16:08:51;31.42;;;17.88;;
46487;SDS011;32202;48.780;9.204;2022-10-30T16:11:17;49.45;;;28.63;;
46487;SDS011;32202;48.780;9.204;2022-10-30T16:13:45;18.63;;;10.27;;
46487;SDS011;32202;48.780;9.204;2022-10-30T16:16:16;18.23;;;9.20;;
46487;SDS011;32202;48.780;9.204;2022-10-30T16:18:46;15.40;;;7.63;;
46487;SDS011;32202;48.780;9.204;2022-10-30T16:21:13;17.67;;;7.28;;
46487;SDS011;32202;48.780;9.204;2022-10-30T16:23:49;18.95;;;7.72;;
46487;SDS011;32202;48.780;9.204;2022-10-30T16:28:48;15.15;;;6.75;;
46487;SDS011;32202;48.780;9.204;2022-10-30T16:31:14;16.80;;;7.53;;
46487;SDS011;32202;48.780;9.204;2022-10-30T16:33:44;14.63;;;6.85;;
46487;SDS011;32202;48.780;9.204;2022-10-30T16:36:10;12.98;;;7.03;;
46487;SDS011;32202;48.780;9.204;2022-10-30T16:38:41;14.93;;;7.95;;
46487;SDS011;32202;48.780;9.204;2022-10-30T16:41:10;18.50;;;7.13;;
46487;SDS011;32202;48.780;9.204;2022-10-30T16:43:37;14.23;;;7.30;;
46487;SDS011;32202;48.780;9.204;2022-10-30T16:48:41;48.67;;;30.13;;
46487;SDS011;32202;48.780;9.204;2022-10-30T16:51:15;101.57;;;61.53;;
46487;SDS011;32202;48.780;9.204;2022-10-30T16:53:45;83.70;;;48.53;;
46487;SDS011;32202;48.780;9.204;2022-10-30T16:56:20;36.70;;;20.88;;
46487;SDS011;32202;48.780;9.204;2022-10-30T16:59:03;144.48;;;88.70;;
46487;SDS011;32202;48.780;9.204;2022-10-30T17:01:31;169.27;;;99.22;;
46487;SDS011;32202;48.780;9.204;2022-10-30T17:03:57;130.40;;;75.13;;
46487;SDS011;32202;48.780;9.204;2022-10-30T17:09:28;172.52;;;99.32;;
46487;SDS011;32202;48.780;9.204;2022-10-30T17:12:10;65.47;;;38.25;;
46487;SDS011;32202;48.780;9.204;2022-10-30T17:14:45;478.80;;;327.88;;
46487;SDS011;32202;48.780;9.204;2022-10-30T17:17:19;428.80;;;286.60;;
46487;SDS011;32202;48.780;9.204;2022-10-30T17:19:59;271.98;;;164.32;;